sensor_id;sensor_type;location;lat;lon;timestamp;P1;durP1;ratioP1;P2;durP2;ratioP2
16760;SDS011;8498;52.516;13.790;2023-08-30T00:00:12;4.37;;;1.63;;
16760;SDS011;8498;52.516;13.790;2023-08-30T00:05:38;2.13;;;2.00;;
16760;SDS011;8498;52.516;13.790;2023-08-30T00:11:01;1.70;;;1.60;;
16760;SDS011;8498;52.516;13.790;2023-08-30T00:16:24;3.53;;;1.63;;
16760;SDS011;8498;52.516;13.790;2023-08-30T00:21:47;2.00;;;1.80;;
16760;SDS011;8498;52.516;13.790;2023-08-30T00:27:10;3.50;;;2.00;;
16760;SDS011;8498;52.516;13.790;2023-08-30T00:32:32;2.67;;;1.80;;
16760;SDS011;8498;52.516;13.790;2023-08-30T00:37:55;1.90;;;1.80;;
16760;SDS011;8498;52.516;13.790;2023-08-30T00:43:18;2.40;;;1.80;;
16760;SDS011;8498;52.516;13.790;2023-08-30T00:48:41;2.47;;;2.13;;
16760;SDS011;8498;52.516;13.790;2023-08-30T00:54:04;4.70;;;3.10;;
16760;SDS011;8498;52.516;13.790;2023-08-30T00:59:28;6.33;;;2.90;;
16760;SDS011;8498;52.516;13.790;2023-08-30T01:04:54;5.70;;;3.53;;
16760;SDS011;8498;52.516;13.790;2023-08-30T01:10:16;6.47;;;3.57;;
16760;SDS011;8498;52.516;13.790;2023-08-30T01:15:39;7.13;;;4.20;;
16760;SDS011;8498;52.516;13.790;2023-08-30T01:21:04;5.80;;;4.43;;
16760;SDS011;8498;52.516;13.790;2023-08-30T01:32:03;7.43;;;5.20;;
16760;SDS011;8498;52.516;13.790;2023-08-30T01:37:28;9.53;;;5.03;;
16760;SDS011;8498;52.516;13.790;2023-08-30T01:42:51;9.93;;;5.70;;
16760;SDS011;8498;52.516;13.790;2023-08-30T01:48:15;7.90;;;6.20;;
16760;SDS011;8498;52.516;13.790;2023-08-30T01:53:39;8.53;;;5.27;;
16760;SDS011;8498;52.516;13.790;2023-08-30T01:59:01;7.17;;;5.27;;
16760;SDS011;8498;52.516;13.790;2023-08-30T02:04:24;6.93;;;5.20;;
16760;SDS011;8498;52.516;13.790;2023-08-30T02:09:54;6.67;;;5.27;;
16760;SDS011;8498;52.516;13.790;2023-08-30T02:15:20;8.23;;;5.82;;
16760;SDS011;8498;52.516;13.790;2023-08-30T02:20:45;7.00;;;5.47;;
16760;SDS011;8498;52.516;13.790;2023-08-30T02:26:08;10.07;;;5.27;;
16760;SDS011;8498;52.516;13.790;2023-08-30T02:31:30;8.43;;;5.30;;
16760;SDS011;8498;52.516;13.790;2023-08-30T02:36:53;8.03;;;5.23;;
16760;SDS011;8498;52.516;13.790;2023-08-30T02:42:15;9.30;;;5.47;;
16760;SDS011;8498;52.516;13.790;2023-08-30T02:47:38;7.13;;;5.47;;
16760;SDS011;8498;52.516;13.790;2023-08-30T02:53:00;8.93;;;5.60;;
16760;SDS011;8498;52.516;13.790;2023-08-30T02:58:22;8.07;;;5.33;;
16760;SDS011;8498;52.516;13.790;2023-08-30T03:03:51;7.47;;;5.37;;
16760;SDS011;8498;52.516;13.790;2023-08-30T03:09:14;11.80;;;4.83;;
16760;SDS011;8498;52.516;13.790;2023-08-30T03:14:39;8.30;;;5.70;;
16760;SDS011;8498;52.516;13.790;2023-08-30T03:20:01;7.17;;;5.27;;
16760;SDS011;8498;52.516;13.790;2023-08-30T03:25:28;8.10;;;5.13;;
16760;SDS011;8498;52.516;13.790;2023-08-30T03:30:52;6.47;;;4.97;;
16760;SDS011;8498;52.516;13.790;2023-08-30T03:36:15;7.53;;;5.50;;
16760;SDS011;8498;52.516;13.790;2023-08-30T03:41:39;10.47;;;6.00;;
16760;SDS011;8498;52.516;13.790;2023-08-30T03:47:01;9.07;;;5.73;;
16760;SDS011;8498;52.516;13.790;2023-08-30T03:52:25;7.30;;;5.47;;
16760;SDS011;8498;52.516;13.790;2023-08-30T03:57:48;9.10;;;6.00;;
16760;SDS011;8498;52.516;13.790;2023-08-30T04:03:12;6.97;;;5.33;;
16760;SDS011;8498;52.516;13.790;2023-08-30T04:08:36;6.43;;;5.27;;
16760;SDS011;8498;52.516;13.790;2023-08-30T04:13:59;7.93;;;4.93;;
16760;SDS011;8498;52.516;13.790;2023-08-30T04:19:21;6.83;;;5.30;;
16760;SDS011;8498;52.516;13.790;2023-08-30T04:24:44;6.03;;;5.27;;
16760;SDS011;8498;52.516;13.790;2023-08-30T04:30:07;7.90;;;5.40;;
16760;SDS011;8498;52.516;13.790;2023-08-30T04:35:33;6.60;;;5.00;;
16760;SDS011;8498;52.516;13.790;2023-08-30T04:40:56;6.70;;;5.53;;
16760;SDS011;8498;52.516;13.790;2023-08-30T04:46:22;8.67;;;5.53;;
16760;SDS011;8498;52.516;13.790;2023-08-30T04:51:47;7.53;;;5.37;;
16760;SDS011;8498;52.516;13.790;2023-08-30T04:57:09;9.43;;;5.53;;
16760;SDS011;8498;52.516;13.790;2023-08-30T05:02:36;8.33;;;5.40;;
16760;SDS011;8498;52.516;13.790;2023-08-30T05:08:02;7.63;;;5.30;;
16760;SDS011;8498;52.516;13.790;2023-08-30T05:13:26;14.67;;;6.27;;
16760;SDS011;8498;52.516;13.790;2023-08-30T05:18:48;9.70;;;5.77;;
16760;SDS011;8498;52.516;13.790;2023-08-30T05:24:11;8.13;;;5.90;;
16760;SDS011;8498;52.516;13.790;2023-08-30T05:29:34;11.97;;;5.73;;
16760;SDS011;8498;52.516;13.790;2023-08-30T05:34:57;8.73;;;5.30;;
16760;SDS011;8498;52.516;13.790;2023-08-30T05:40:30;9.80;;;5.93;;
16760;SDS011;8498;52.516;13.790;2023-08-30T05:45:52;11.13;;;6.40;;
16760;SDS011;8498;52.516;13.790;2023-08-30T05:51:16;10.80;;;6.57;;
16760;SDS011;8498;52.516;13.790;2023-08-30T05:56:39;10.67;;;6.13;;
16760;SDS011;8498;52.516;13.790;2023-08-30T06:02:01;12.43;;;6.70;;
16760;SDS011;8498;52.516;13.790;2023-08-30T06:07:24;9.80;;;6.30;;
16760;SDS011;8498;52.516;13.790;2023-08-30T06:12:46;12.27;;;5.67;;
16760;SDS011;8498;52.516;13.790;2023-08-30T06:18:09;9.37;;;6.77;;
16760;SDS011;8498;52.516;13.790;2023-08-30T06:23:32;11.83;;;7.17;;
16760;SDS011;8498;52.516;13.790;2023-08-30T06:28:55;10.43;;;6.53;;
16760;SDS011;8498;52.516;13.790;2023-08-30T06:34:26;10.00;;;6.70;;
16760;SDS011;8498;52.516;13.790;2023-08-30T06:39:48;12.13;;;7.00;;
16760;SDS011;8498;52.516;13.790;2023-08-30T06:45:11;10.93;;;6.07;;
16760;SDS011;8498;52.516;13.790;2023-08-30T06:50:34;11.77;;;7.10;;
16760;SDS011;8498;52.516;13.790;2023-08-30T06:55:58;12.33;;;6.60;;
16760;SDS011;8498;52.516;13.790;2023-08-30T07:01:21;10.67;;;5.63;;
16760;SDS011;8498;52.516;13.790;2023-08-30T07:06:44;9.67;;;5.73;;
16760;SDS011;8498;52.516;13.790;2023-08-30T07:12:06;8.60;;;5.43;;
16760;SDS011;8498;52.516;13.790;2023-08-30T07:17:29;11.30;;;5.67;;
16760;SDS011;8498;52.516;13.790;2023-08-30T07:23:11;10.10;;;6.47;;
16760;SDS011;8498;52.516;13.790;2023-08-30T07:28:34;10.40;;;5.60;;
16760;SDS011;8498;52.516;13.790;2023-08-30T07:33:56;7.37;;;5.30;;
16760;SDS011;8498;52.516;13.790;2023-08-30T07:39:20;11.17;;;5.53;;
16760;SDS011;8498;52.516;13.790;2023-08-30T07:44:42;8.97;;;5.10;;
16760;SDS011;8498;52.516;13.790;2023-08-30T07:50:06;9.97;;;5.60;;
16760;SDS011;8498;52.516;13.790;2023-08-30T07:55:30;8.43;;;4.93;;
16760;SDS011;8498;52.516;13.790;2023-08-30T08:00:52;8.37;;;5.43;;
16760;SDS011;8498;52.516;13.790;2023-08-30T08:06:15;10.52;;;5.03;;
16760;SDS011;8498;52.516;13.790;2023-08-30T08:11:38;7.43;;;5.22;;
16760;SDS011;8498;52.516;13.790;2023-08-30T08:17:05;8.40;;;5.00;;
16760;SDS011;8498;52.516;13.790;2023-08-30T08:22:27;7.40;;;4.65;;
16760;SDS011;8498;52.516;13.790;2023-08-30T08:27:50;5.95;;;4.75;;
16760;SDS011;8498;52.516;13.790;2023-08-30T08:33:15;8.95;;;4.60;;
16760;SDS011;8498;52.516;13.790;2023-08-30T08:38:38;4.47;;;3.40;;
16760;SDS011;8498;52.516;13.790;2023-08-30T08:44:01;9.30;;;3.10;;
16760;SDS011;8498;52.516;13.790;2023-08-30T08:49:25;4.38;;;3.00;;
16760;SDS011;8498;52.516;13.790;2023-08-30T08:54:52;4.72;;;2.92;;
16760;SDS011;8498;52.516;13.790;2023-08-30T09:00:16;6.90;;;3.70;;
16760;SDS011;8498;52.516;13.790;2023-08-30T09:05:38;5.20;;;3.05;;
16760;SDS011;8498;52.516;13.790;2023-08-30T09:11:02;5.57;;;3.42;;
16760;SDS011;8498;52.516;13.790;2023-08-30T09:16:25;5.90;;;3.33;;
16760;SDS011;8498;52.516;13.790;2023-08-30T09:21:54;5.28;;;3.78;;
16760;SDS011;8498;52.516;13.790;2023-08-30T09:27:17;4.15;;;2.95;;
16760;SDS011;8498;52.516;13.790;2023-08-30T09:32:40;3.15;;;2.83;;
16760;SDS011;8498;52.516;13.790;2023-08-30T09:38:07;2.50;;;2.30;;
16760;SDS011;8498;52.516;13.790;2023-08-30T09:43:41;3.92;;;2.20;;
16760;SDS011;8498;52.516;13.790;2023-08-30T09:49:04;4.10;;;2.63;;
16760;SDS011;8498;52.516;13.790;2023-08-30T09:54:27;4.45;;;2.45;;
16760;SDS011;8498;52.516;13.790;2023-08-30T10:00:01;3.92;;;2.40;;
16760;SDS011;8498;52.516;13.790;2023-08-30T10:05:26;3.38;;;1.80;;
16760;SDS011;8498;52.516;13.790;2023-08-30T10:10:49;3.72;;;1.73;;
16760;SDS011;8498;52.516;13.790;2023-08-30T10:16:15;2.45;;;2.10;;
16760;SDS011;8498;52.516;13.790;2023-08-30T10:21:44;4.22;;;2.20;;
16760;SDS011;8498;52.516;13.790;2023-08-30T10:27:08;2.50;;;2.30;;
16760;SDS011;8498;52.516;13.790;2023-08-30T10:32:32;4.60;;;2.10;;
16760;SDS011;8498;52.516;13.790;2023-08-30T10:38:00;3.78;;;1.63;;
16760;SDS011;8498;52.516;13.790;2023-08-30T10:43:29;2.28;;;1.58;;
16760;SDS011;8498;52.516;13.790;2023-08-30T10:48:53;1.90;;;1.80;;
16760;SDS011;8498;52.516;13.790;2023-08-30T10:54:16;5.38;;;1.70;;
16760;SDS011;8498;52.516;13.790;2023-08-30T10:59:39;3.20;;;1.92;;
16760;SDS011;8498;52.516;13.790;2023-08-30T11:05:02;4.15;;;2.00;;
16760;SDS011;8498;52.516;13.790;2023-08-30T11:10:28;5.20;;;2.00;;
16760;SDS011;8498;52.516;13.790;2023-08-30T11:15:51;1.90;;;1.80;;
16760;SDS011;8498;52.516;13.790;2023-08-30T11:21:14;4.25;;;2.17;;
16760;SDS011;8498;52.516;13.790;2023-08-30T11:26:37;2.05;;;1.80;;
16760;SDS011;8498;52.516;13.790;2023-08-30T11:31:59;2.40;;;1.95;;
16760;SDS011;8498;52.516;13.790;2023-08-30T11:37:22;3.63;;;2.25;;
16760;SDS011;8498;52.516;13.790;2023-08-30T11:42:45;5.60;;;1.98;;
16760;SDS011;8498;52.516;13.790;2023-08-30T11:48:10;2.83;;;2.25;;
16760;SDS011;8498;52.516;13.790;2023-08-30T11:53:35;3.40;;;1.77;;
16760;SDS011;8498;52.516;13.790;2023-08-30T11:58:58;2.03;;;1.83;;
16760;SDS011;8498;52.516;13.790;2023-08-30T12:04:20;6.25;;;1.90;;
16760;SDS011;8498;52.516;13.790;2023-08-30T12:09:42;6.00;;;2.28;;
16760;SDS011;8498;52.516;13.790;2023-08-30T12:15:11;3.05;;;1.85;;
16760;SDS011;8498;52.516;13.790;2023-08-30T12:20:35;2.15;;;1.90;;
16760;SDS011;8498;52.516;13.790;2023-08-30T12:26:01;1.80;;;1.70;;
16760;SDS011;8498;52.516;13.790;2023-08-30T12:31:28;2.00;;;1.90;;
16760;SDS011;8498;52.516;13.790;2023-08-30T12:36:50;4.50;;;1.63;;
16760;SDS011;8498;52.516;13.790;2023-08-30T12:42:13;2.10;;;2.00;;
16760;SDS011;8498;52.516;13.790;2023-08-30T12:47:36;2.72;;;1.90;;
16760;SDS011;8498;52.516;13.790;2023-08-30T12:52:59;2.97;;;2.20;;
16760;SDS011;8498;52.516;13.790;2023-08-30T12:58:22;2.00;;;1.70;;
16760;SDS011;8498;52.516;13.790;2023-08-30T13:03:44;2.83;;;2.05;;
16760;SDS011;8498;52.516;13.790;2023-08-30T13:09:07;2.10;;;1.55;;
16760;SDS011;8498;52.516;13.790;2023-08-30T13:14:29;1.52;;;1.42;;
16760;SDS011;8498;52.516;13.790;2023-08-30T13:19:52;2.35;;;1.83;;
16760;SDS011;8498;52.516;13.790;2023-08-30T13:25:15;1.90;;;1.80;;
16760;SDS011;8498;52.516;13.790;2023-08-30T13:30:43;2.72;;;1.73;;
16760;SDS011;8498;52.516;13.790;2023-08-30T13:36:06;2.05;;;1.95;;
16760;SDS011;8498;52.516;13.790;2023-08-30T13:41:29;2.67;;;1.88;;
16760;SDS011;8498;52.516;13.790;2023-08-30T13:46:51;1.95;;;1.83;;
16760;SDS011;8498;52.516;13.790;2023-08-30T13:52:14;1.73;;;1.63;;
16760;SDS011;8498;52.516;13.790;2023-08-30T13:57:36;3.80;;;1.80;;
16760;SDS011;8498;52.516;13.790;2023-08-30T14:02:59;2.90;;;1.98;;
16760;SDS011;8498;52.516;13.790;2023-08-30T14:08:22;4.22;;;2.05;;
16760;SDS011;8498;52.516;13.790;2023-08-30T14:13:44;2.63;;;1.85;;
16760;SDS011;8498;52.516;13.790;2023-08-30T14:19:06;4.10;;;1.73;;
16760;SDS011;8498;52.516;13.790;2023-08-30T14:24:29;6.05;;;2.20;;
16760;SDS011;8498;52.516;13.790;2023-08-30T14:29:59;3.28;;;1.75;;
16760;SDS011;8498;52.516;13.790;2023-08-30T14:35:23;5.53;;;2.65;;
16760;SDS011;8498;52.516;13.790;2023-08-30T14:40:58;2.33;;;1.88;;
16760;SDS011;8498;52.516;13.790;2023-08-30T14:46:22;2.97;;;1.48;;
16760;SDS011;8498;52.516;13.790;2023-08-30T14:51:45;3.42;;;1.75;;
16760;SDS011;8498;52.516;13.790;2023-08-30T14:57:09;4.10;;;1.90;;
16760;SDS011;8498;52.516;13.790;2023-08-30T15:02:32;3.28;;;1.70;;
16760;SDS011;8498;52.516;13.790;2023-08-30T15:07:55;2.78;;;1.60;;
16760;SDS011;8498;52.516;13.790;2023-08-30T15:13:17;1.67;;;1.58;;
16760;SDS011;8498;52.516;13.790;2023-08-30T15:18:40;3.47;;;1.52;;
16760;SDS011;8498;52.516;13.790;2023-08-30T15:24:03;2.78;;;1.40;;
16760;SDS011;8498;52.516;13.790;2023-08-30T15:29:27;2.67;;;1.48;;
16760;SDS011;8498;52.516;13.790;2023-08-30T15:34:49;2.53;;;1.58;;
16760;SDS011;8498;52.516;13.790;2023-08-30T15:40:12;5.10;;;1.80;;
16760;SDS011;8498;52.516;13.790;2023-08-30T15:45:34;1.80;;;1.70;;
16760;SDS011;8498;52.516;13.790;2023-08-30T15:50:57;3.13;;;1.55;;
16760;SDS011;8498;52.516;13.790;2023-08-30T15:56:19;1.80;;;1.70;;
16760;SDS011;8498;52.516;13.790;2023-08-30T16:01:42;3.10;;;1.88;;
16760;SDS011;8498;52.516;13.790;2023-08-30T16:07:05;1.60;;;1.50;;
16760;SDS011;8498;52.516;13.790;2023-08-30T16:12:29;1.95;;;1.75;;
16760;SDS011;8498;52.516;13.790;2023-08-30T16:17:51;1.65;;;1.55;;
16760;SDS011;8498;52.516;13.790;2023-08-30T16:23:14;5.00;;;1.70;;
16760;SDS011;8498;52.516;13.790;2023-08-30T16:28:37;2.00;;;1.90;;
16760;SDS011;8498;52.516;13.790;2023-08-30T16:34:01;3.13;;;1.90;;
16760;SDS011;8498;52.516;13.790;2023-08-30T16:39:23;2.15;;;1.85;;
16760;SDS011;8498;52.516;13.790;2023-08-30T16:44:46;2.55;;;1.75;;
16760;SDS011;8498;52.516;13.790;2023-08-30T16:50:09;5.43;;;1.80;;
16760;SDS011;8498;52.516;13.790;2023-08-30T16:55:31;1.95;;;1.85;;
16760;SDS011;8498;52.516;13.790;2023-08-30T17:00:54;3.78;;;2.05;;
16760;SDS011;8498;52.516;13.790;2023-08-30T17:06:17;2.17;;;2.05;;
16760;SDS011;8498;52.516;13.790;2023-08-30T17:11:39;2.22;;;2.08;;
16760;SDS011;8498;52.516;13.790;2023-08-30T17:17:02;4.05;;;2.22;;
16760;SDS011;8498;52.516;13.790;2023-08-30T17:22:25;2.10;;;1.90;;
16760;SDS011;8498;52.516;13.790;2023-08-30T17:27:48;4.28;;;2.28;;
16760;SDS011;8498;52.516;13.790;2023-08-30T17:33:11;2.30;;;2.10;;
16760;SDS011;8498;52.516;13.790;2023-08-30T17:38:34;2.25;;;2.00;;
16760;SDS011;8498;52.516;13.790;2023-08-30T17:43:58;2.17;;;2.05;;
16760;SDS011;8498;52.516;13.790;2023-08-30T17:49:21;6.13;;;2.45;;
16760;SDS011;8498;52.516;13.790;2023-08-30T17:54:44;3.28;;;2.35;;
16760;SDS011;8498;52.516;13.790;2023-08-30T18:00:07;4.38;;;2.80;;
16760;SDS011;8498;52.516;13.790;2023-08-30T18:05:32;5.50;;;2.88;;
16760;SDS011;8498;52.516;13.790;2023-08-30T18:10:55;8.43;;;3.30;;
16760;SDS011;8498;52.516;13.790;2023-08-30T18:16:18;8.20;;;3.10;;
16760;SDS011;8498;52.516;13.790;2023-08-30T18:21:48;4.97;;;2.95;;
16760;SDS011;8498;52.516;13.790;2023-08-30T18:27:10;6.10;;;2.65;;
16760;SDS011;8498;52.516;13.790;2023-08-30T18:32:33;5.05;;;2.65;;
16760;SDS011;8498;52.516;13.790;2023-08-30T18:37:56;4.70;;;2.92;;
16760;SDS011;8498;52.516;13.790;2023-08-30T18:43:19;3.30;;;3.00;;
16760;SDS011;8498;52.516;13.790;2023-08-30T18:48:41;5.32;;;3.00;;
16760;SDS011;8498;52.516;13.790;2023-08-30T18:54:06;4.25;;;3.85;;
16760;SDS011;8498;52.516;13.790;2023-08-30T18:59:29;4.22;;;3.67;;
16760;SDS011;8498;52.516;13.790;2023-08-30T19:04:52;4.13;;;3.83;;
16760;SDS011;8498;52.516;13.790;2023-08-30T19:10:14;4.28;;;3.78;;
16760;SDS011;8498;52.516;13.790;2023-08-30T19:15:40;4.00;;;3.63;;
16760;SDS011;8498;52.516;13.790;2023-08-30T19:21:03;3.70;;;3.38;;
16760;SDS011;8498;52.516;13.790;2023-08-30T19:26:28;6.77;;;3.17;;
16760;SDS011;8498;52.516;13.790;2023-08-30T19:31:52;4.05;;;2.80;;
16760;SDS011;8498;52.516;13.790;2023-08-30T19:37:14;3.57;;;3.27;;
16760;SDS011;8498;52.516;13.790;2023-08-30T19:42:37;3.07;;;2.87;;
16760;SDS011;8498;52.516;13.790;2023-08-30T19:48:01;3.57;;;3.27;;
16760;SDS011;8498;52.516;13.790;2023-08-30T19:53:26;4.13;;;3.00;;
16760;SDS011;8498;52.516;13.790;2023-08-30T19:58:49;5.13;;;2.80;;
16760;SDS011;8498;52.516;13.790;2023-08-30T20:04:12;2.87;;;2.67;;
16760;SDS011;8498;52.516;13.790;2023-08-30T20:09:34;2.90;;;2.70;;
16760;SDS011;8498;52.516;13.790;2023-08-30T20:14:57;3.40;;;3.07;;
16760;SDS011;8498;52.516;13.790;2023-08-30T20:20:21;2.90;;;2.60;;
16760;SDS011;8498;52.516;13.790;2023-08-30T20:25:44;4.77;;;3.27;;
16760;SDS011;8498;52.516;13.790;2023-08-30T20:31:08;4.60;;;3.63;;
16760;SDS011;8498;52.516;13.790;2023-08-30T20:36:33;3.40;;;3.10;;
16760;SDS011;8498;52.516;13.790;2023-08-30T20:42:01;3.20;;;2.90;;
16760;SDS011;8498;52.516;13.790;2023-08-30T20:47:24;3.27;;;3.00;;
16760;SDS011;8498;52.516;13.790;2023-08-30T20:52:47;12.77;;;7.97;;
16760;SDS011;8498;52.516;13.790;2023-08-30T20:58:11;4.73;;;3.77;;
16760;SDS011;8498;52.516;13.790;2023-08-30T21:03:34;4.30;;;3.50;;
16760;SDS011;8498;52.516;13.790;2023-08-30T21:08:57;3.60;;;2.90;;
16760;SDS011;8498;52.516;13.790;2023-08-30T21:14:19;3.20;;;2.90;;
16760;SDS011;8498;52.516;13.790;2023-08-30T21:19:43;3.87;;;2.90;;
16760;SDS011;8498;52.516;13.790;2023-08-30T21:25:05;4.70;;;3.00;;
16760;SDS011;8498;52.516;13.790;2023-08-30T21:30:29;3.13;;;2.73;;
16760;SDS011;8498;52.516;13.790;2023-08-30T21:35:52;4.00;;;3.63;;
16760;SDS011;8498;52.516;13.790;2023-08-30T21:41:15;4.40;;;3.13;;
16760;SDS011;8498;52.516;13.790;2023-08-30T21:46:38;7.20;;;3.13;;
16760;SDS011;8498;52.516;13.790;2023-08-30T21:52:00;3.33;;;2.80;;
16760;SDS011;8498;52.516;13.790;2023-08-30T21:57:22;5.23;;;2.90;;
16760;SDS011;8498;52.516;13.790;2023-08-30T22:02:45;4.03;;;3.53;;
16760;SDS011;8498;52.516;13.790;2023-08-30T22:08:08;4.33;;;3.30;;
16760;SDS011;8498;52.516;13.790;2023-08-30T22:13:31;2.87;;;2.67;;
16760;SDS011;8498;52.516;13.790;2023-08-30T22:18:53;4.33;;;3.40;;
16760;SDS011;8498;52.516;13.790;2023-08-30T22:24:16;5.80;;;4.03;;
16760;SDS011;8498;52.516;13.790;2023-08-30T22:29:39;5.47;;;3.67;;
16760;SDS011;8498;52.516;13.790;2023-08-30T22:35:02;4.07;;;3.53;;
16760;SDS011;8498;52.516;13.790;2023-08-30T22:40:28;4.53;;;4.13;;
16760;SDS011;8498;52.516;13.790;2023-08-30T22:45:51;8.83;;;4.10;;
16760;SDS011;8498;52.516;13.790;2023-08-30T22:51:14;4.53;;;4.00;;
16760;SDS011;8498;52.516;13.790;2023-08-30T22:56:40;6.83;;;3.97;;
16760;SDS011;8498;52.516;13.790;2023-08-30T23:02:03;7.23;;;4.40;;
16760;SDS011;8498;52.516;13.790;2023-08-30T23:07:26;5.63;;;4.03;;
16760;SDS011;8498;52.516;13.790;2023-08-30T23:12:48;5.63;;;3.90;;
16760;SDS011;8498;52.516;13.790;2023-08-30T23:18:13;8.00;;;4.00;;
16760;SDS011;8498;52.516;13.790;2023-08-30T23:23:36;4.77;;;3.80;;
16760;SDS011;8498;52.516;13.790;2023-08-30T23:29:00;6.07;;;3.80;;
16760;SDS011;8498;52.516;13.790;2023-08-30T23:34:23;4.27;;;3.90;;
16760;SDS011;8498;52.516;13.790;2023-08-30T23:39:46;8.57;;;4.10;;
16760;SDS011;8498;52.516;13.790;2023-08-30T23:45:09;5.72;;;4.05;;
16760;SDS011;8498;52.516;13.790;2023-08-30T23:50:32;5.33;;;4.10;;
16760;SDS011;8498;52.516;13.790;2023-08-30T23:55:55;5.13;;;4.17;;
